sensor_id;sensor_type;location;lat;lon;timestamp;pressure;altitude;pressure_sealevel;temperature;humidity
77216;BME280;66210;53.282;9.864;2023-05-10T00:01:17;100265.94;;;14.31;43.51
77216;BME280;66210;53.282;9.864;2023-05-10T00:03:43;100258.25;;;14.30;43.58
77216;BME280;66210;53.282;9.864;2023-05-10T00:06:10;100261.53;;;14.26;44.21
77216;BME280;66210;53.282;9.864;2023-05-10T00:08:37;100257.97;;;14.19;44.77
77216;BME280;66210;53.282;9.864;2023-05-10T00:11:04;100253.56;;;14.12;44.25
77216;BME280;66210;53.282;9.864;2023-05-10T00:13:31;100260.31;;;14.08;44.73
77216;BME280;66210;53.282;9.864;2023-05-10T00:15:57;100254.28;;;14.06;43.93
77216;BME280;66210;53.282;9.864;2023-05-10T00:18:24;100252.50;;;14.02;45.36
77216;BME280;66210;53.282;9.864;2023-05-10T00:20:51;100247.97;;;13.92;45.37
77216;BME280;66210;53.282;9.864;2023-05-10T00:23:17;100251.16;;;13.83;45.91
77216;BME280;66210;53.282;9.864;2023-05-10T00:25:44;100247.63;;;13.78;45.48
77216;BME280;66210;53.282;9.864;2023-05-10T00:28:11;100233.94;;;13.75;45.81
77216;BME280;66210;53.282;9.864;2023-05-10T00:30:37;100241.50;;;13.70;45.51
77216;BME280;66210;53.282;9.864;2023-05-10T00:33:04;100238.06;;;13.69;46.21
77216;BME280;66210;53.282;9.864;2023-05-10T00:35:31;100232.09;;;13.69;45.65
77216;BME280;66210;53.282;9.864;2023-05-10T00:37:58;100238.03;;;13.68;45.40
77216;BME280;66210;53.282;9.864;2023-05-10T00:40:24;100231.94;;;13.63;46.75
77216;BME280;66210;53.282;9.864;2023-05-10T00:42:51;100229.19;;;13.55;47.05
77216;BME280;66210;53.282;9.864;2023-05-10T00:45:18;100221.47;;;13.52;46.79
77216;BME280;66210;53.282;9.864;2023-05-10T00:47:45;100227.16;;;13.42;48.30
77216;BME280;66210;53.282;9.864;2023-05-10T00:50:13;100232.88;;;13.33;48.03
77216;BME280;66210;53.282;9.864;2023-05-10T00:52:42;100226.78;;;13.28;48.33
77216;BME280;66210;53.282;9.864;2023-05-10T00:55:10;100230.03;;;13.24;48.96
77216;BME280;66210;53.282;9.864;2023-05-10T00:57:38;100231.50;;;13.16;49.75
77216;BME280;66210;53.282;9.864;2023-05-10T01:00:05;100221.97;;;13.08;49.73
77216;BME280;66210;53.282;9.864;2023-05-10T01:02:34;100227.81;;;13.04;48.79
77216;BME280;66210;53.282;9.864;2023-05-10T01:05:02;100225.22;;;13.03;49.00
77216;BME280;66210;53.282;9.864;2023-05-10T01:07:30;100220.13;;;13.03;48.53
77216;BME280;66210;53.282;9.864;2023-05-10T01:09:57;100223.44;;;13.00;49.42
77216;BME280;66210;53.282;9.864;2023-05-10T01:12:24;100220.81;;;12.97;49.56
77216;BME280;66210;53.282;9.864;2023-05-10T01:14:51;100224.19;;;12.96;49.13
77216;BME280;66210;53.282;9.864;2023-05-10T01:17:19;100213.88;;;12.92;49.62
77216;BME280;66210;53.282;9.864;2023-05-10T01:19:47;100212.13;;;12.90;49.33
77216;BME280;66210;53.282;9.864;2023-05-10T01:33:39;100213.69;;;12.85;49.67
77216;BME280;66210;53.282;9.864;2023-05-10T01:39:13;100208.41;;;12.79;49.64
77216;BME280;66210;53.282;9.864;2023-05-10T01:41:51;100207.56;;;12.79;49.46
77216;BME280;66210;53.282;9.864;2023-05-10T01:47:45;100206.56;;;12.74;50.27
77216;BME280;66210;53.282;9.864;2023-05-10T01:50:22;100209.06;;;12.72;50.53
77216;BME280;66210;53.282;9.864;2023-05-10T01:52:53;100209.00;;;12.71;50.30
77216;BME280;66210;53.282;9.864;2023-05-10T01:55:25;100205.53;;;12.67;50.59
77216;BME280;66210;53.282;9.864;2023-05-10T01:58:00;100199.47;;;12.63;50.30
77216;BME280;66210;53.282;9.864;2023-05-10T02:00:29;100195.81;;;12.55;50.61
77216;BME280;66210;53.282;9.864;2023-05-10T02:02:56;100205.84;;;12.49;50.77
77216;BME280;66210;53.282;9.864;2023-05-10T02:05:24;100207.38;;;12.44;51.10
77216;BME280;66210;53.282;9.864;2023-05-10T02:07:51;100200.44;;;12.38;51.80
77216;BME280;66210;53.282;9.864;2023-05-10T02:10:19;100201.06;;;12.31;51.98
77216;BME280;66210;53.282;9.864;2023-05-10T02:12:48;100199.25;;;12.27;52.32
77216;BME280;66210;53.282;9.864;2023-05-10T02:15:20;100209.31;;;12.24;51.96
77216;BME280;66210;53.282;9.864;2023-05-10T02:17:48;100206.63;;;12.19;52.36
77216;BME280;66210;53.282;9.864;2023-05-10T02:20:16;100211.69;;;12.18;52.25
77216;BME280;66210;53.282;9.864;2023-05-10T02:22:47;100209.16;;;12.18;52.35
77216;BME280;66210;53.282;9.864;2023-05-10T02:25:18;100203.16;;;12.16;52.79
77216;BME280;66210;53.282;9.864;2023-05-10T02:27:46;100203.16;;;12.16;52.83
77216;BME280;66210;53.282;9.864;2023-05-10T02:30:15;100199.75;;;12.15;52.33
77216;BME280;66210;53.282;9.864;2023-05-10T02:32:42;100201.47;;;12.16;52.45
77216;BME280;66210;53.282;9.864;2023-05-10T02:35:10;100208.25;;;12.16;52.56
77216;BME280;66210;53.282;9.864;2023-05-10T02:37:38;100207.38;;;12.15;52.96
77216;BME280;66210;53.282;9.864;2023-05-10T02:40:07;100205.56;;;12.13;53.82
77216;BME280;66210;53.282;9.864;2023-05-10T02:42:36;100202.88;;;12.08;53.49
77216;BME280;66210;53.282;9.864;2023-05-10T02:45:07;100202.81;;;12.05;53.59
77216;BME280;66210;53.282;9.864;2023-05-10T02:47:35;100198.38;;;11.99;54.31
77216;BME280;66210;53.282;9.864;2023-05-10T02:50:02;100198.34;;;11.98;54.18
77216;BME280;66210;53.282;9.864;2023-05-10T02:52:34;100199.13;;;11.95;54.50
77216;BME280;66210;53.282;9.864;2023-05-10T02:55:05;100193.88;;;11.91;54.59
77216;BME280;66210;53.282;9.864;2023-05-10T02:57:33;100192.13;;;11.90;54.53
77216;BME280;66210;53.282;9.864;2023-05-10T03:00:01;100200.50;;;11.87;55.00
77216;BME280;66210;53.282;9.864;2023-05-10T03:02:31;100194.44;;;11.83;55.75
77216;BME280;66210;53.282;9.864;2023-05-10T03:04:58;100195.94;;;11.77;55.63
77216;BME280;66210;53.282;9.864;2023-05-10T03:07:25;100193.22;;;11.72;55.92
77216;BME280;66210;53.282;9.864;2023-05-10T03:09:52;100193.06;;;11.66;56.13
77216;BME280;66210;53.282;9.864;2023-05-10T03:12:31;100195.59;;;11.66;56.36
77216;BME280;66210;53.282;9.864;2023-05-10T03:15:04;100192.94;;;11.63;56.43
77216;BME280;66210;53.282;9.864;2023-05-10T03:17:42;100192.84;;;11.60;56.61
77216;BME280;66210;53.282;9.864;2023-05-10T03:23:25;100189.28;;;11.55;57.41
77216;BME280;66210;53.282;9.864;2023-05-10T03:25:53;100190.94;;;11.54;57.24
77216;BME280;66210;53.282;9.864;2023-05-10T03:28:21;100187.50;;;11.52;57.67
77216;BME280;66210;53.282;9.864;2023-05-10T03:30:49;100185.72;;;11.50;57.98
77216;BME280;66210;53.282;9.864;2023-05-10T03:33:16;100185.72;;;11.50;57.69
77216;BME280;66210;53.282;9.864;2023-05-10T03:35:43;100190.84;;;11.51;57.64
77216;BME280;66210;53.282;9.864;2023-05-10T03:38:12;100186.59;;;11.50;57.72
77216;BME280;66210;53.282;9.864;2023-05-10T03:40:40;100193.31;;;11.48;57.77
77216;BME280;66210;53.282;9.864;2023-05-10T03:43:07;100190.72;;;11.47;58.34
77216;BME280;66210;53.282;9.864;2023-05-10T03:45:33;100193.19;;;11.45;58.07
77216;BME280;66210;53.282;9.864;2023-05-10T03:48:00;100188.97;;;11.45;58.23
77216;BME280;66210;53.282;9.864;2023-05-10T03:50:27;100191.50;;;11.45;58.35
77216;BME280;66210;53.282;9.864;2023-05-10T03:52:54;100183.94;;;11.47;58.38
77216;BME280;66210;53.282;9.864;2023-05-10T03:55:20;100178.91;;;11.49;58.52
77216;BME280;66210;53.282;9.864;2023-05-10T03:57:47;100177.28;;;11.51;58.19
77216;BME280;66210;53.282;9.864;2023-05-10T04:00:16;100186.69;;;11.53;57.47
77216;BME280;66210;53.282;9.864;2023-05-10T04:02:43;100177.44;;;11.55;57.31
77216;BME280;66210;53.282;9.864;2023-05-10T04:05:12;100179.16;;;11.56;57.43
77216;BME280;66210;53.282;9.864;2023-05-10T04:07:39;100173.25;;;11.57;57.33
77216;BME280;66210;53.282;9.864;2023-05-10T04:10:06;100181.84;;;11.61;57.32
77216;BME280;66210;53.282;9.864;2023-05-10T04:12:33;100187.06;;;11.65;57.44
77216;BME280;66210;53.282;9.864;2023-05-10T04:15:00;100183.78;;;11.68;57.21
77216;BME280;66210;53.282;9.864;2023-05-10T04:17:26;100181.34;;;11.71;57.47
77216;BME280;66210;53.282;9.864;2023-05-10T04:19:53;100187.44;;;11.76;56.91
77216;BME280;66210;53.282;9.864;2023-05-10T04:22:21;100173.00;;;11.75;56.77
77216;BME280;66210;53.282;9.864;2023-05-10T04:24:47;100184.09;;;11.77;57.12
77216;BME280;66210;53.282;9.864;2023-05-10T04:27:14;100182.50;;;11.81;56.90
77216;BME280;66210;53.282;9.864;2023-05-10T04:29:41;100180.91;;;11.84;56.99
77216;BME280;66210;53.282;9.864;2023-05-10T04:32:08;100179.34;;;11.88;56.88
77216;BME280;66210;53.282;9.864;2023-05-10T04:34:37;100172.69;;;11.92;56.77
77216;BME280;66210;53.282;9.864;2023-05-10T04:37:04;100179.50;;;11.93;57.04
77216;BME280;66210;53.282;9.864;2023-05-10T04:39:30;100181.19;;;11.92;57.30
77216;BME280;66210;53.282;9.864;2023-05-10T04:41:57;100175.28;;;11.93;56.84
77216;BME280;66210;53.282;9.864;2023-05-10T04:44:24;100184.75;;;11.97;56.81
77216;BME280;66210;53.282;9.864;2023-05-10T04:46:50;100177.25;;;12.02;56.66
77216;BME280;66210;53.282;9.864;2023-05-10T04:49:17;100185.19;;;12.11;56.40
77216;BME280;66210;53.282;9.864;2023-05-10T04:51:44;100183.56;;;12.15;56.90
77216;BME280;66210;53.282;9.864;2023-05-10T04:54:11;100179.38;;;12.15;57.14
77216;BME280;66210;53.282;9.864;2023-05-10T04:56:37;100186.19;;;12.16;56.26
77216;BME280;66210;53.282;9.864;2023-05-10T04:59:04;100184.63;;;12.21;56.98
77216;BME280;66210;53.282;9.864;2023-05-10T05:01:31;100185.69;;;12.28;56.54
77216;BME280;66210;53.282;9.864;2023-05-10T05:03:58;100181.63;;;12.35;56.64
77216;BME280;66210;53.282;9.864;2023-05-10T05:06:25;100180.91;;;12.39;56.92
77216;BME280;66210;53.282;9.864;2023-05-10T05:08:53;100183.53;;;12.42;56.52
77216;BME280;66210;53.282;9.864;2023-05-10T05:11:20;100179.41;;;12.45;56.48
77216;BME280;66210;53.282;9.864;2023-05-10T05:13:48;100190.69;;;12.54;56.73
77216;BME280;66210;53.282;9.864;2023-05-10T05:16:26;100193.44;;;12.61;56.26
77216;BME280;66210;53.282;9.864;2023-05-10T05:18:53;100185.03;;;12.64;56.42
77216;BME280;66210;53.282;9.864;2023-05-10T05:21:19;100186.72;;;12.63;56.10
77216;BME280;66210;53.282;9.864;2023-05-10T05:23:46;100191.09;;;12.67;56.25
77216;BME280;66210;53.282;9.864;2023-05-10T05:26:13;100191.94;;;12.68;56.67
77216;BME280;66210;53.282;9.864;2023-05-10T05:28:39;100193.53;;;12.64;56.45
77216;BME280;66210;53.282;9.864;2023-05-10T05:31:07;100194.38;;;12.63;56.89
77216;BME280;66210;53.282;9.864;2023-05-10T05:33:34;100190.97;;;12.64;56.37
77216;BME280;66210;53.282;9.864;2023-05-10T05:36:02;100194.53;;;12.69;55.94
77216;BME280;66210;53.282;9.864;2023-05-10T05:38:29;100189.63;;;12.76;56.42
77216;BME280;66210;53.282;9.864;2023-05-10T05:40:55;100190.56;;;12.79;55.55
77216;BME280;66210;53.282;9.864;2023-05-10T05:43:22;100185.69;;;12.87;56.09
77216;BME280;66210;53.282;9.864;2023-05-10T05:45:49;100187.53;;;12.93;56.11
77216;BME280;66210;53.282;9.864;2023-05-10T05:48:16;100196.22;;;12.99;55.87
77216;BME280;66210;53.282;9.864;2023-05-10T05:50:42;100198.81;;;13.01;55.49
77216;BME280;66210;53.282;9.864;2023-05-10T05:53:09;100196.34;;;13.04;55.38
77216;BME280;66210;53.282;9.864;2023-05-10T05:55:35;100199.88;;;13.09;56.10
77216;BME280;66210;53.282;9.864;2023-05-10T05:58:02;100205.16;;;13.15;56.17
77216;BME280;66210;53.282;9.864;2023-05-10T06:00:28;100202.72;;;13.20;55.05
77216;BME280;66210;53.282;9.864;2023-05-10T06:02:55;100204.53;;;13.24;55.14
77216;BME280;66210;53.282;9.864;2023-05-10T06:05:22;100197.88;;;13.29;55.22
77216;BME280;66210;53.282;9.864;2023-05-10T06:07:48;100202.25;;;13.33;55.31
77216;BME280;66210;53.282;9.864;2023-05-10T06:10:15;100195.56;;;13.37;55.14
77216;BME280;66210;53.282;9.864;2023-05-10T06:12:41;100201.50;;;13.37;55.83
77216;BME280;66210;53.282;9.864;2023-05-10T06:15:08;100205.03;;;13.41;54.94
77216;BME280;66210;53.282;9.864;2023-05-10T06:17:35;100205.16;;;13.47;54.89
77216;BME280;66210;53.282;9.864;2023-05-10T06:20:02;100205.38;;;13.55;55.53
77216;BME280;66210;53.282;9.864;2023-05-10T06:22:28;100210.50;;;13.56;55.17
77216;BME280;66210;53.282;9.864;2023-05-10T06:24:55;100212.28;;;13.59;55.41
77216;BME280;66210;53.282;9.864;2023-05-10T06:27:21;100214.09;;;13.64;55.35
77216;BME280;66210;53.282;9.864;2023-05-10T06:29:48;100214.22;;;13.69;55.01
77216;BME280;66210;53.282;9.864;2023-05-10T06:32:19;100215.22;;;13.76;55.08
77216;BME280;66210;53.282;9.864;2023-05-10T06:34:46;100211.00;;;13.76;54.68
77216;BME280;66210;53.282;9.864;2023-05-10T06:37:12;100216.19;;;13.79;55.17
77216;BME280;66210;53.282;9.864;2023-05-10T06:39:39;100213.75;;;13.85;54.84
77216;BME280;66210;53.282;9.864;2023-05-10T06:42:05;100218.16;;;13.91;55.23
77216;BME280;66210;53.282;9.864;2023-05-10T06:44:32;100222.44;;;13.92;55.04
77216;BME280;66210;53.282;9.864;2023-05-10T06:46:59;100229.34;;;13.96;54.97
77216;BME280;66210;53.282;9.864;2023-05-10T06:49:25;100232.09;;;14.04;55.09
77216;BME280;66210;53.282;9.864;2023-05-10T06:51:52;100237.34;;;14.10;54.50
77216;BME280;66210;53.282;9.864;2023-05-10T06:54:18;100239.94;;;14.11;54.62
77216;BME280;66210;53.282;9.864;2023-05-10T06:56:45;100246.81;;;14.14;54.90
77216;BME280;66210;53.282;9.864;2023-05-10T06:59:11;100236.56;;;14.12;54.52
77216;BME280;66210;53.282;9.864;2023-05-10T07:01:39;100242.44;;;14.10;54.83
77216;BME280;66210;53.282;9.864;2023-05-10T07:04:06;100240.69;;;14.07;55.17
77216;BME280;66210;53.282;9.864;2023-05-10T07:06:33;100241.53;;;14.06;55.30
77216;BME280;66210;53.282;9.864;2023-05-10T07:09:00;100248.41;;;14.09;54.94
77216;BME280;66210;53.282;9.864;2023-05-10T07:11:27;100243.34;;;14.10;55.12
77216;BME280;66210;53.282;9.864;2023-05-10T07:13:53;100244.97;;;14.08;55.78
77216;BME280;66210;53.282;9.864;2023-05-10T07:16:20;100249.09;;;14.03;55.95
77216;BME280;66210;53.282;9.864;2023-05-10T07:18:47;100245.47;;;13.93;56.22
77216;BME280;66210;53.282;9.864;2023-05-10T07:21:14;100241.09;;;13.89;57.24
77216;BME280;66210;53.282;9.864;2023-05-10T07:23:41;100243.66;;;13.89;56.86
77216;BME280;66210;53.282;9.864;2023-05-10T07:26:10;100241.00;;;13.85;57.94
77216;BME280;66210;53.282;9.864;2023-05-10T07:28:37;100252.84;;;13.83;58.07
77216;BME280;66210;53.282;9.864;2023-05-10T07:31:04;100251.09;;;13.80;58.34
77216;BME280;66210;53.282;9.864;2023-05-10T07:33:31;100257.97;;;13.83;58.19
77216;BME280;66210;53.282;9.864;2023-05-10T07:35:58;100252.91;;;13.84;58.65
77216;BME280;66210;53.282;9.864;2023-05-10T07:38:24;100252.97;;;13.87;59.05
77216;BME280;66210;53.282;9.864;2023-05-10T07:40:51;100260.72;;;13.90;59.02
77216;BME280;66210;53.282;9.864;2023-05-10T07:43:18;100260.72;;;13.90;58.98
77216;BME280;66210;53.282;9.864;2023-05-10T07:45:44;100260.75;;;13.92;58.89
77216;BME280;66210;53.282;9.864;2023-05-10T07:48:11;100259.94;;;13.93;58.85
77216;BME280;66210;53.282;9.864;2023-05-10T07:50:38;100254.81;;;13.93;58.64
77216;BME280;66210;53.282;9.864;2023-05-10T07:53:05;100255.72;;;13.95;59.04
77216;BME280;66210;53.282;9.864;2023-05-10T07:55:31;100266.06;;;14.00;58.97
77216;BME280;66210;53.282;9.864;2023-05-10T07:57:58;100262.72;;;14.02;58.97
77216;BME280;66210;53.282;9.864;2023-05-10T08:00:52;100270.31;;;14.01;59.23
77216;BME280;66210;53.282;9.864;2023-05-10T08:03:18;100270.19;;;13.95;59.43
77216;BME280;66210;53.282;9.864;2023-05-10T08:05:45;100270.25;;;13.98;59.00
77216;BME280;66210;53.282;9.864;2023-05-10T08:08:11;100275.44;;;14.01;59.47
77216;BME280;66210;53.282;9.864;2023-05-10T08:10:38;100272.97;;;14.04;60.32
77216;BME280;66210;53.282;9.864;2023-05-10T08:13:04;100284.09;;;14.06;59.91
77216;BME280;66210;53.282;9.864;2023-05-10T08:15:31;100276.50;;;14.09;60.02
77216;BME280;66210;53.282;9.864;2023-05-10T08:17:58;100284.28;;;14.13;60.39
77216;BME280;66210;53.282;9.864;2023-05-10T08:20:24;100288.59;;;14.16;60.32
77216;BME280;66210;53.282;9.864;2023-05-10T08:22:51;100293.00;;;14.22;60.64
77216;BME280;66210;53.282;9.864;2023-05-10T08:25:17;100290.44;;;14.22;60.85
77216;BME280;66210;53.282;9.864;2023-05-10T08:27:44;100292.19;;;14.24;61.37
77216;BME280;66210;53.282;9.864;2023-05-10T08:30:11;100297.31;;;14.26;60.90
77216;BME280;66210;53.282;9.864;2023-05-10T08:32:38;100298.22;;;14.26;61.41
77216;BME280;66210;53.282;9.864;2023-05-10T08:35:05;100303.31;;;14.26;61.40
77216;BME280;66210;53.282;9.864;2023-05-10T08:37:32;100307.53;;;14.24;61.58
77216;BME280;66210;53.282;9.864;2023-05-10T08:39:59;100308.44;;;14.26;61.65
77216;BME280;66210;53.282;9.864;2023-05-10T08:42:28;100310.19;;;14.29;62.61
77216;BME280;66210;53.282;9.864;2023-05-10T08:44:57;100316.28;;;14.34;62.55
77216;BME280;66210;53.282;9.864;2023-05-10T08:47:24;100321.34;;;14.32;64.13
77216;BME280;66210;53.282;9.864;2023-05-10T08:49:51;100322.97;;;14.29;63.99
77216;BME280;66210;53.282;9.864;2023-05-10T08:52:19;100329.66;;;14.24;63.65
77216;BME280;66210;53.282;9.864;2023-05-10T08:54:46;100332.03;;;14.16;64.00
77216;BME280;66210;53.282;9.864;2023-05-10T08:57:13;100343.78;;;14.09;64.53
77216;BME280;66210;53.282;9.864;2023-05-10T08:59:39;100347.00;;;14.02;65.49
77216;BME280;66210;53.282;9.864;2023-05-10T09:02:09;100353.56;;;13.92;65.30
77216;BME280;66210;53.282;9.864;2023-05-10T09:04:37;100366.19;;;13.86;65.36
77216;BME280;66210;53.282;9.864;2023-05-10T09:07:04;100363.41;;;13.79;65.77
77216;BME280;66210;53.282;9.864;2023-05-10T09:09:31;100365.81;;;13.72;66.22
77216;BME280;66210;53.282;9.864;2023-05-10T09:11:57;100358.03;;;13.68;66.16
77216;BME280;66210;53.282;9.864;2023-05-10T09:14:24;100366.44;;;13.65;66.97
77216;BME280;66210;53.282;9.864;2023-05-10T09:16:51;100368.91;;;13.62;67.83
77216;BME280;66210;53.282;9.864;2023-05-10T09:19:20;100362.91;;;13.60;68.00
77216;BME280;66210;53.282;9.864;2023-05-10T09:21:46;100364.56;;;13.58;68.04
77216;BME280;66210;53.282;9.864;2023-05-10T09:24:13;100361.00;;;13.53;69.94
77216;BME280;66210;53.282;9.864;2023-05-10T09:26:48;100367.03;;;13.55;69.43
77216;BME280;66210;53.282;9.864;2023-05-10T09:29:15;100379.88;;;13.58;70.20
77216;BME280;66210;53.282;9.864;2023-05-10T09:31:50;100379.88;;;13.58;69.57
77216;BME280;66210;53.282;9.864;2023-05-10T09:34:22;100385.88;;;13.60;70.13
77216;BME280;66210;53.282;9.864;2023-05-10T09:36:56;100392.63;;;13.58;71.27
77216;BME280;66210;53.282;9.864;2023-05-10T09:39:33;100396.81;;;13.55;72.03
77216;BME280;66210;53.282;9.864;2023-05-10T09:42:05;100403.50;;;13.51;72.09
77216;BME280;66210;53.282;9.864;2023-05-10T09:44:33;100406.84;;;13.48;71.96
77216;BME280;66210;53.282;9.864;2023-05-10T09:47:01;100405.09;;;13.47;71.64
77216;BME280;66210;53.282;9.864;2023-05-10T09:49:28;100406.09;;;13.52;71.89
77216;BME280;66210;53.282;9.864;2023-05-10T09:52:03;100406.22;;;13.57;71.86
77216;BME280;66210;53.282;9.864;2023-05-10T09:54:30;100414.81;;;13.59;71.72
77216;BME280;66210;53.282;9.864;2023-05-10T09:56:57;100413.94;;;13.59;72.08
77216;BME280;66210;53.282;9.864;2023-05-10T09:59:27;100412.19;;;13.58;72.35
77216;BME280;66210;53.282;9.864;2023-05-10T10:01:58;100419.78;;;13.55;72.27
77216;BME280;66210;53.282;9.864;2023-05-10T10:04:26;100423.97;;;13.52;72.41
77216;BME280;66210;53.282;9.864;2023-05-10T10:07:04;100425.59;;;13.50;73.02
77216;BME280;66210;53.282;9.864;2023-05-10T10:09:32;100424.63;;;13.47;73.27
77216;BME280;66210;53.282;9.864;2023-05-10T10:12:00;100416.00;;;13.42;74.16
77216;BME280;66210;53.282;9.864;2023-05-10T10:14:28;100425.28;;;13.40;73.83
77216;BME280;66210;53.282;9.864;2023-05-10T10:16:55;100418.47;;;13.39;74.14
77216;BME280;66210;53.282;9.864;2023-05-10T10:19:35;100422.81;;;13.43;73.67
77216;BME280;66210;53.282;9.864;2023-05-10T10:22:02;100418.69;;;13.46;73.58
77216;BME280;66210;53.282;9.864;2023-05-10T10:24:29;100423.00;;;13.49;74.37
77216;BME280;66210;53.282;9.864;2023-05-10T10:27:02;100424.75;;;13.50;74.54
77216;BME280;66210;53.282;9.864;2023-05-10T10:29:38;100429.75;;;13.47;74.28
77216;BME280;66210;53.282;9.864;2023-05-10T10:32:17;100432.16;;;13.42;75.64
77216;BME280;66210;53.282;9.864;2023-05-10T10:34:46;100430.41;;;13.40;76.25
77216;BME280;66210;53.282;9.864;2023-05-10T10:37:13;100435.16;;;13.29;77.92
77216;BME280;66210;53.282;9.864;2023-05-10T10:39:40;100443.28;;;13.17;77.84
77216;BME280;66210;53.282;9.864;2023-05-10T10:42:07;100442.94;;;13.05;77.83
77216;BME280;66210;53.282;9.864;2023-05-10T10:44:36;100445.38;;;13.02;77.53
77216;BME280;66210;53.282;9.864;2023-05-10T10:47:06;100446.28;;;13.04;76.92
77216;BME280;66210;53.282;9.864;2023-05-10T10:49:43;100448.19;;;13.09;76.89
77216;BME280;66210;53.282;9.864;2023-05-10T10:52:25;100449.25;;;13.18;76.72
77216;BME280;66210;53.282;9.864;2023-05-10T10:57:32;100450.53;;;13.30;76.98
77216;BME280;66210;53.282;9.864;2023-05-10T11:02:51;100447.41;;;13.39;76.11
77216;BME280;66210;53.282;9.864;2023-05-10T11:05:38;100451.78;;;13.43;75.91
77216;BME280;66210;53.282;9.864;2023-05-10T11:13:43;100449.13;;;13.40;77.77
77216;BME280;66210;53.282;9.864;2023-05-10T11:16:25;100448.25;;;13.40;78.55
77216;BME280;66210;53.282;9.864;2023-05-10T11:21:26;100451.06;;;13.49;78.57
77216;BME280;66210;53.282;9.864;2023-05-10T11:23:55;100457.22;;;13.56;79.95
77216;BME280;66210;53.282;9.864;2023-05-10T11:26:24;100452.84;;;13.51;78.56
77216;BME280;66210;53.282;9.864;2023-05-10T11:28:53;100457.22;;;13.56;79.77
77216;BME280;66210;53.282;9.864;2023-05-10T11:31:23;100452.97;;;13.55;80.13
77216;BME280;66210;53.282;9.864;2023-05-10T11:33:58;100460.50;;;13.51;80.44
77216;BME280;66210;53.282;9.864;2023-05-10T11:36:27;100463.84;;;13.49;80.88
77216;BME280;66210;53.282;9.864;2023-05-10T11:38:55;100466.34;;;13.47;80.99
77216;BME280;66210;53.282;9.864;2023-05-10T11:41:23;100471.50;;;13.49;80.49
77216;BME280;66210;53.282;9.864;2023-05-10T11:43:52;100471.69;;;13.55;80.23
77216;BME280;66210;53.282;9.864;2023-05-10T11:46:22;100472.59;;;13.57;80.58
77216;BME280;66210;53.282;9.864;2023-05-10T11:48:50;100473.47;;;13.58;81.17
77216;BME280;66210;53.282;9.864;2023-05-10T11:51:22;100472.69;;;13.60;81.65
77216;BME280;66210;53.282;9.864;2023-05-10T11:53:49;100478.78;;;13.65;81.06
77216;BME280;66210;53.282;9.864;2023-05-10T11:56:16;100477.38;;;13.75;80.80
77216;BME280;66210;53.282;9.864;2023-05-10T11:58:43;100475.16;;;13.87;80.68
77216;BME280;66210;53.282;9.864;2023-05-10T12:01:10;100476.31;;;13.97;80.96
77216;BME280;66210;53.282;9.864;2023-05-10T12:03:37;100480.63;;;14.00;80.75
77216;BME280;66210;53.282;9.864;2023-05-10T12:06:04;100490.13;;;14.04;80.77
77216;BME280;66210;53.282;9.864;2023-05-10T12:08:31;100488.72;;;14.15;81.07
77216;BME280;66210;53.282;9.864;2023-05-10T12:11:06;100494.09;;;14.26;80.31
77216;BME280;66210;53.282;9.864;2023-05-10T12:13:38;100490.97;;;14.36;80.22
77216;BME280;66210;53.282;9.864;2023-05-10T12:16:16;100495.25;;;14.37;80.31
77216;BME280;66210;53.282;9.864;2023-05-10T12:18:44;100496.00;;;14.33;80.47
77216;BME280;66210;53.282;9.864;2023-05-10T12:21:11;100502.72;;;14.29;81.08
77216;BME280;66210;53.282;9.864;2023-05-10T12:23:39;100504.38;;;14.27;80.52
77216;BME280;66210;53.282;9.864;2023-05-10T12:26:06;100497.56;;;14.28;81.37
77216;BME280;66210;53.282;9.864;2023-05-10T12:28:33;100494.25;;;14.32;80.92
77216;BME280;66210;53.282;9.864;2023-05-10T12:30:59;100498.03;;;14.45;80.98
77216;BME280;66210;53.282;9.864;2023-05-10T12:33:26;100499.25;;;14.58;80.65
77216;BME280;66210;53.282;9.864;2023-05-10T12:35:54;100502.94;;;14.69;80.71
77216;BME280;66210;53.282;9.864;2023-05-10T12:38:27;100497.09;;;14.74;79.64
77216;BME280;66210;53.282;9.864;2023-05-10T12:41:00;100493.75;;;14.75;80.46
77216;BME280;66210;53.282;9.864;2023-05-10T12:43:27;100488.53;;;14.72;80.45
77216;BME280;66210;53.282;9.864;2023-05-10T12:45:54;100497.84;;;14.69;79.83
77216;BME280;66210;53.282;9.864;2023-05-10T12:48:21;100501.31;;;14.72;79.64
77216;BME280;66210;53.282;9.864;2023-05-10T12:50:48;100506.59;;;14.79;80.50
77216;BME280;66210;53.282;9.864;2023-05-10T12:53:14;100503.97;;;14.75;80.11
77216;BME280;66210;53.282;9.864;2023-05-10T12:55:44;100504.88;;;14.78;80.07
77216;BME280;66210;53.282;9.864;2023-05-10T12:58:10;100508.31;;;14.80;79.99
77216;BME280;66210;53.282;9.864;2023-05-10T13:00:46;100513.41;;;14.80;80.06
77216;BME280;66210;53.282;9.864;2023-05-10T13:03:12;100510.00;;;14.79;80.13
77216;BME280;66210;53.282;9.864;2023-05-10T13:05:39;100515.97;;;14.78;80.53
77216;BME280;66210;53.282;9.864;2023-05-10T13:08:06;100515.09;;;14.78;80.37
77216;BME280;66210;53.282;9.864;2023-05-10T13:10:32;100516.88;;;14.82;80.50
77216;BME280;66210;53.282;9.864;2023-05-10T13:12:59;100511.06;;;14.87;80.22
77216;BME280;66210;53.282;9.864;2023-05-10T13:15:26;100519.91;;;15.00;79.70
77216;BME280;66210;53.282;9.864;2023-05-10T13:17:53;100513.38;;;15.13;79.67
77216;BME280;66210;53.282;9.864;2023-05-10T13:20:20;100524.69;;;15.21;79.40
77216;BME280;66210;53.282;9.864;2023-05-10T13:22:47;100520.69;;;15.32;79.06
77216;BME280;66210;53.282;9.864;2023-05-10T13:25:15;100517.53;;;15.44;78.92
77216;BME280;66210;53.282;9.864;2023-05-10T13:27:42;100520.28;;;15.53;78.44
77216;BME280;66210;53.282;9.864;2023-05-10T13:30:09;100512.94;;;15.67;78.60